Time;durP1;ratioP1;P1;durP2;ratioP2;P2;SDS_P1;SDS_P2;PMS_P1;PMS_P2;Temp;Humidity;BMP_temperature;BMP_pressure;BME280_temperature;BME280_humidity;BME280_pressure;Samples;Min_cycle;Max_cycle;Signal;HPM_P1;HPM_P2
2022/08/31 00:06:06;;;;;;;25.80;9.13;;;;;;;;;;6221007;28;20042;-56
2022/08/31 00:09:06;;;;;;;24.58;9.07;;;;;;;;;;6220666;28;20037;-56
2022/08/31 00:12:07;;;;;;;19.67;9.07;;;;;;;;;;6222817;28;20077;-57
2022/08/31 00:15:10;;;;;;;19.10;9.40;;;;;;;;;;6218439;28;20512;-58
2022/08/31 00:18:11;;;;;;;19.27;8.65;;;;;;;;;;6221797;28;21044;-58
2022/08/31 00:21:11;;;;;;;21.08;8.40;;;;;;;;;;6218515;28;20049;-57
2022/08/31 00:24:13;;;;;;;28.67;9.93;;;;;;;;;;6219286;28;20034;-57
2022/08/31 00:27:14;;;;;;;22.92;9.45;;;;;;;;;;6220546;28;20058;-55
2022/08/31 00:30:15;;;;;;;21.07;9.20;;;;;;;;;;6219451;28;20049;-57
2022/08/31 00:33:16;;;;;;;23.73;8.73;;;;;;;;;;6220089;28;20421;-57
2022/08/31 00:36:20;;;;;;;18.13;8.57;;;;;;;;;;6220676;28;20070;-57
2022/08/31 00:39:21;;;;;;;19.45;8.45;;;;;;;;;;6219855;28;20498;-58
2022/08/31 00:42:22;;;;;;;22.60;9.95;;;;;;;;;;6217802;28;20049;-55
2022/08/31 00:45:22;;;;;;;22.60;8.90;;;;;;;;;;6219312;28;20091;-56
2022/08/31 00:48:23;;;;;;;25.75;10.52;;;;;;;;;;6217735;28;20054;-57
2022/08/31 00:51:26;;;;;;;28.45;11.27;;;;;;;;;;6218541;28;20060;-58
2022/08/31 00:54:47;;;;;;;26.38;10.98;;;;;;;;;;6217677;28;20604;-58
2022/08/31 00:57:51;;;;;;;35.42;11.25;;;;;;;;;;6220986;28;20137;-56
2022/08/31 01:00:52;;;;;;;31.42;11.95;;;;;;;;;;6221090;28;20067;-56
2022/08/31 01:03:53;;;;;;;28.30;11.43;;;;;;;;;;6220892;28;20045;-57
2022/08/31 01:06:54;;;;;;;29.85;12.57;;;;;;;;;;6216791;28;20127;-57
2022/08/31 01:09:55;;;;;;;27.15;12.57;;;;;;;;;;6220076;28;20489;-58
2022/08/31 01:12:57;;;;;;;31.88;13.52;;;;;;;;;;6223090;28;20132;-58
2022/08/31 01:16:05;;;;;;;32.47;15.27;;;;;;;;;;6221102;28;20501;-57
2022/08/31 01:19:13;;;;;;;28.60;12.30;;;;;;;;;;6223814;28;20488;-55
2022/08/31 01:22:35;;;;;;;28.48;12.30;;;;;;;;;;6222439;28;20061;-57
2022/08/31 01:25:37;;;;;;;;;;;;;;;;;;6225367;28;20136;-59
2022/08/31 01:28:38;;;;;;;29.58;11.88;;;;;;;;;;6224097;28;20020;-57
2022/08/31 01:31:44;;;;;;;27.48;12.27;;;;;;;;;;6226986;28;20034;-56
2022/08/31 01:34:45;;;;;;;29.70;10.68;;;;;;;;;;6225689;28;20053;-56
2022/08/31 01:37:46;;;;;;;24.80;10.82;;;;;;;;;;6221513;28;20045;-59
2022/08/31 01:40:53;;;;;;;24.33;10.63;;;;;;;;;;6223229;28;20053;-58
2022/08/31 01:43:55;;;;;;;25.73;11.40;;;;;;;;;;6219331;28;20103;-57
2022/08/31 01:46:56;;;;;;;26.73;10.48;;;;;;;;;;6235633;28;20141;-56
2022/08/31 01:49:57;;;;;;;25.35;11.15;;;;;;;;;;6243967;28;20045;-56
2022/08/31 01:52:57;;;;;;;24.73;10.85;;;;;;;;;;6241772;28;20895;-57
2022/08/31 01:55:58;;;;;;;25.77;10.93;;;;;;;;;;6221350;28;20793;-56
2022/08/31 01:58:59;;;;;;;24.55;10.43;;;;;;;;;;6222855;28;20416;-57
2022/08/31 02:02:00;;;;;;;23.80;9.77;;;;;;;;;;6224171;28;20048;-57
2022/08/31 02:05:01;;;;;;;25.05;10.20;;;;;;;;;;6224958;28;20128;-58
2022/08/31 02:08:04;;;;;;;23.80;10.25;;;;;;;;;;6220355;28;20049;-56
2022/08/31 02:11:06;;;;;;;22.60;9.18;;;;;;;;;;6225320;28;20532;-57
2022/08/31 02:14:07;;;;;;;20.23;9.05;;;;;;;;;;6222503;28;20141;-57
2022/08/31 02:17:08;;;;;;;21.88;8.93;;;;;;;;;;6222092;28;20049;-58
2022/08/31 02:20:10;;;;;;;23.73;8.85;;;;;;;;;;6224588;28;20451;-57
2022/08/31 02:23:11;;;;;;;22.65;9.43;;;;;;;;;;6221452;28;20096;-56
2022/08/31 02:26:13;;;;;;;26.08;9.75;;;;;;;;;;6219837;28;20054;-57
2022/08/31 02:29:13;;;;;;;22.27;9.55;;;;;;;;;;6223918;28;20045;-55
2022/08/31 02:32:14;;;;;;;17.75;8.25;;;;;;;;;;6223050;28;20453;-57
2022/08/31 02:35:14;;;;;;;26.77;9.45;;;;;;;;;;6222780;28;20107;-57
2022/08/31 02:38:15;;;;;;;21.10;9.38;;;;;;;;;;6222503;28;20400;-58
2022/08/31 02:41:16;;;;;;;17.90;8.80;;;;;;;;;;6223078;28;20096;-58
2022/08/31 02:44:17;;;;;;;18.93;8.30;;;;;;;;;;6221134;28;20049;-58
2022/08/31 02:47:18;;;;;;;21.67;8.43;;;;;;;;;;6221659;28;20061;-57
2022/08/31 02:50:18;;;;;;;17.85;7.90;;;;;;;;;;6219852;28;20041;-59
2022/08/31 02:53:22;;;;;;;21.45;8.38;;;;;;;;;;6219867;28;20038;-58
2022/08/31 02:56:23;;;;;;;20.27;8.35;;;;;;;;;;6223319;28;20045;-58
2022/08/31 02:59:23;;;;;;;20.35;8.13;;;;;;;;;;6221685;28;20082;-58
2022/08/31 03:02:24;;;;;;;19.05;7.88;;;;;;;;;;6218142;28;20090;-59
2022/08/31 03:05:25;;;;;;;16.98;7.38;;;;;;;;;;6221768;28;20050;-58
2022/08/31 03:08:27;;;;;;;17.70;8.00;;;;;;;;;;6222136;28;20058;-57
2022/08/31 03:11:27;;;;;;;17.47;7.67;;;;;;;;;;6222932;28;20050;-57
2022/08/31 03:14:28;;;;;;;25.17;8.05;;;;;;;;;;6222956;28;20092;-58
2022/08/31 03:17:29;;;;;;;17.90;8.15;;;;;;;;;;6220562;28;20125;-58
2022/08/31 03:20:29;;;;;;;20.42;8.40;;;;;;;;;;6222297;28;20049;-58
2022/08/31 03:23:30;;;;;;;17.17;7.70;;;;;;;;;;6219712;28;20488;-57
2022/08/31 03:26:30;;;;;;;15.63;7.95;;;;;;;;;;6219815;28;20061;-57
2022/08/31 03:29:31;;;;;;;14.48;7.50;;;;;;;;;;6221936;28;20041;-57
2022/08/31 03:32:32;;;;;;;17.80;8.23;;;;;;;;;;6222463;28;20444;-56
2022/08/31 03:35:32;;;;;;;15.77;7.68;;;;;;;;;;6221072;28;20042;-55
2022/08/31 03:38:33;;;;;;;15.95;7.63;;;;;;;;;;6216036;28;20133;-55
2022/08/31 12:50:02;;;;;;;10.10;4.23;;;;;;;;;;2395846;26;20060;-55
2022/08/31 12:53:43;;;;;;;17.48;4.10;;;;;;;;;;6216552;28;20115;-58
2022/08/31 12:57:02;;;;;;;16.77;4.30;;;;;;;;;;6218623;28;20056;-56
2022/08/31 13:00:18;;;;;;;11.50;3.13;;;;;;;;;;6210015;28;20050;-57
2022/08/31 13:03:29;;;;;;;8.52;3.80;;;;;;;;;;6212699;28;20057;-54
2022/08/31 13:06:33;;;;;;;8.35;3.60;;;;;;;;;;6215935;28;20069;-55
2022/08/31 13:09:35;;;;;;;12.45;3.60;;;;;;;;;;6218617;28;20486;-57
2022/08/31 13:12:36;;;;;;;10.80;3.58;;;;;;;;;;6221009;28;20142;-55
2022/08/31 13:15:39;;;;;;;10.02;3.53;;;;;;;;;;6221698;28;20046;-56
2022/08/31 13:18:40;;;;;;;11.43;4.22;;;;;;;;;;6219800;28;20049;-56
2022/08/31 13:21:48;;;;;;;9.20;4.20;;;;;;;;;;6220908;28;20038;-54
2022/08/31 13:24:49;;;;;;;9.98;3.90;;;;;;;;;;6213886;28;20141;-54
2022/08/31 13:27:51;;;;;;;7.00;3.72;;;;;;;;;;6219827;28;20042;-57
2022/08/31 13:31:17;;;;;;;7.22;3.40;;;;;;;;;;6214285;28;20660;-56
2022/08/31 13:34:19;;;;;;;8.57;3.33;;;;;;;;;;6223431;28;20049;-54
2022/08/31 13:37:28;;;;;;;10.65;3.97;;;;;;;;;;6218919;28;20184;-55
2022/08/31 13:40:35;;;;;;;8.02;3.20;;;;;;;;;;6222621;28;20049;-55
2022/08/31 13:43:36;;;;;;;8.60;3.03;;;;;;;;;;6224552;28;20144;-55
2022/08/31 13:46:59;;;;;;;8.60;3.53;;;;;;;;;;6215524;28;20049;-53
2022/08/31 13:50:11;;;;;;;9.25;3.15;;;;;;;;;;6213087;28;20189;-54
2022/08/31 13:53:38;;;;;;;10.77;4.60;;;;;;;;;;6221610;28;20542;-56
2022/08/31 13:56:56;;;;;;;5.07;2.83;;;;;;;;;;6217829;28;20092;-55
2022/08/31 14:00:28;;;;;;;6.60;3.50;;;;;;;;;;6215031;28;20516;-56
2022/08/31 14:03:40;;;;;;;7.22;3.17;;;;;;;;;;6215040;28;20049;-54
2022/08/31 14:06:49;;;;;;;8.65;2.80;;;;;;;;;;6220672;28;20052;-55
2022/08/31 14:09:59;;;;;;;6.10;2.88;;;;;;;;;;6222226;28;20057;-57
2022/08/31 14:13:08;;;;;;;6.50;3.42;;;;;;;;;;6219197;28;20394;-57
2022/08/31 14:16:18;;;;;;;7.43;3.10;;;;;;;;;;6219012;28;20674;-57
2022/08/31 14:19:30;;;;;;;6.53;2.63;;;;;;;;;;6222562;28;20487;-53
2022/08/31 14:22:34;;;;;;;7.30;2.65;;;;;;;;;;6214522;28;20050;-58
2022/08/31 14:25:34;;;;;;;7.35;3.28;;;;;;;;;;6220751;28;20929;-56
2022/08/31 14:28:42;;;;;;;5.47;2.80;;;;;;;;;;6215948;28;20172;-57
2022/08/31 14:31:53;;;;;;;7.43;3.05;;;;;;;;;;6216818;28;20519;-56
2022/08/31 14:34:56;;;;;;;;;;;;;;;;;;6214262;28;20136;-56
2022/08/31 14:37:57;;;;;;;7.97;3.22;;;;;;;;;;6215169;28;20383;-57
2022/08/31 14:40:57;;;;;;;5.43;3.00;;;;;;;;;;6218107;28;20122;-57
2022/08/31 14:44:08;;;;;;;8.83;3.17;;;;;;;;;;6222938;28;20053;-56
2022/08/31 14:47:08;;;;;;;8.40;3.58;;;;;;;;;;6203451;28;20183;-57
2022/08/31 14:50:11;;;;;;;13.57;3.63;;;;;;;;;;6216735;28;20058;-57
2022/08/31 14:53:12;;;;;;;7.93;3.58;;;;;;;;;;6219473;28;20045;-56
2022/08/31 14:56:25;;;;;;;10.13;4.40;;;;;;;;;;6221580;28;20060;-56
2022/08/31 14:59:26;;;;;;;8.50;4.28;;;;;;;;;;6212339;28;20536;-60
2022/08/31 15:02:32;;;;;;;8.63;4.83;;;;;;;;;;6214660;28;20096;-57
2022/08/31 15:05:37;;;;;;;7.18;4.10;;;;;;;;;;6215307;28;20053;-57
2022/08/31 15:08:40;;;;;;;9.52;4.90;;;;;;;;;;6212765;28;20057;-57
2022/08/31 15:11:42;;;;;;;7.32;4.13;;;;;;;;;;6215630;28;20814;-57
2022/08/31 15:14:43;;;;;;;8.23;4.13;;;;;;;;;;6212284;28;20104;-56
2022/08/31 15:17:45;;;;;;;9.63;3.80;;;;;;;;;;6217577;28;20042;-58
2022/08/31 15:20:47;;;;;;;8.52;3.83;;;;;;;;;;6212419;28;20057;-58
2022/08/31 15:23:49;;;;;;;8.05;4.30;;;;;;;;;;6215061;28;20128;-58
2022/08/31 15:26:53;;;;;;;8.52;3.90;;;;;;;;;;6207192;28;20136;-57
2022/08/31 15:29:57;;;;;;;8.55;3.80;;;;;;;;;;6208056;28;20886;-57
2022/08/31 15:32:58;;;;;;;7.55;3.83;;;;;;;;;;6209322;28;20060;-57
2022/08/31 15:36:06;;;;;;;9.23;3.60;;;;;;;;;;6208569;28;20050;-58
2022/08/31 15:39:07;;;;;;;15.40;4.78;;;;;;;;;;6211304;28;20058;-55
2022/08/31 15:42:10;;;;;;;18.23;4.67;;;;;;;;;;6207621;28;20050;-56
2022/08/31 15:45:10;;;;;;;6.63;3.05;;;;;;;;;;6209348;28;20074;-56
2022/08/31 15:51:30;;;;;;;7.40;3.10;;;;;;;;;;6208346;28;20061;-55
2022/08/31 15:54:34;;;;;;;7.23;3.00;;;;;;;;;;6208570;28;20042;-56
2022/08/31 15:57:35;;;;;;;6.88;3.00;;;;;;;;;;6207614;28;20060;-57
2022/08/31 16:00:36;;;;;;;6.13;2.93;;;;;;;;;;6206014;28;20049;-55
2022/08/31 16:03:40;;;;;;;5.75;3.03;;;;;;;;;;6209453;28;20049;-55
2022/08/31 16:06:41;;;;;;;7.90;2.58;;;;;;;;;;6206990;28;20064;-55
2022/08/31 16:09:44;;;;;;;6.20;2.63;;;;;;;;;;6205652;28;20050;-56
2022/08/31 16:12:45;;;;;;;6.50;2.92;;;;;;;;;;6210207;28;20065;-56
2022/08/31 16:15:50;;;;;;;9.77;2.63;;;;;;;;;;6210198;28;20735;-55
2022/08/31 16:18:55;;;;;;;8.50;2.97;;;;;;;;;;6203013;28;20591;-55
2022/08/31 16:21:55;;;;;;;5.75;2.83;;;;;;;;;;6205360;28;20145;-52
2022/08/31 16:24:56;;;;;;;6.67;3.27;;;;;;;;;;6208120;28;20489;-53
2022/08/31 16:27:58;;;;;;;8.50;3.33;;;;;;;;;;6211346;28;20050;-56
2022/08/31 16:30:59;;;;;;;9.35;3.20;;;;;;;;;;6208139;28;20053;-56
2022/08/31 16:34:00;;;;;;;8.50;2.80;;;;;;;;;;6206380;28;20046;-56
2022/08/31 16:37:06;;;;;;;9.50;2.90;;;;;;;;;;6204253;28;20148;-56
2022/08/31 16:40:07;;;;;;;7.22;3.00;;;;;;;;;;6208608;28;20222;-58
2022/08/31 16:43:09;;;;;;;8.10;3.30;;;;;;;;;;6212107;28;20049;-61
2022/08/31 16:46:11;;;;;;;9.23;4.03;;;;;;;;;;6211502;28;20416;-60
2022/08/31 16:52:31;;;;;;;8.57;3.25;;;;;;;;;;6208452;28;20049;-64
2022/08/31 16:55:31;;;;;;;7.40;3.30;;;;;;;;;;6214380;28;20508;-60
2022/08/31 16:58:33;;;;;;;8.80;3.40;;;;;;;;;;6212608;28;20532;-62
2022/08/31 17:01:40;;;;;;;7.40;3.35;;;;;;;;;;6211311;28;20050;-60
2022/08/31 17:04:42;;;;;;;8.95;3.10;;;;;;;;;;6214026;28;20776;-61
2022/08/31 17:07:45;;;;;;;10.00;3.30;;;;;;;;;;6215008;28;20423;-60
2022/08/31 17:10:48;;;;;;;10.35;3.50;;;;;;;;;;6211930;28;20108;-60
2022/08/31 17:13:56;;;;;;;13.55;3.83;;;;;;;;;;6214417;28;20057;-55
2022/08/31 17:17:01;;;;;;;13.50;4.03;;;;;;;;;;6213277;28;20050;-55
2022/08/31 17:20:02;;;;;;;13.00;3.65;;;;;;;;;;6212919;28;20488;-56
2022/08/31 17:23:03;;;;;;;8.80;4.03;;;;;;;;;;6215136;28;20060;-57
2022/08/31 17:26:04;;;;;;;11.85;4.13;;;;;;;;;;6217547;28;20064;-55
2022/08/31 17:29:05;;;;;;;12.73;4.33;;;;;;;;;;6217973;28;20049;-54
2022/08/31 17:32:08;;;;;;;9.10;3.87;;;;;;;;;;6214836;28;20053;-58
2022/08/31 17:35:08;;;;;;;13.05;4.53;;;;;;;;;;6216523;28;20054;-57
2022/08/31 17:38:09;;;;;;;11.10;3.97;;;;;;;;;;6219610;28;20049;-59
2022/08/31 17:41:10;;;;;;;12.10;4.67;;;;;;;;;;6213034;28;20056;-55
2022/08/31 17:44:14;;;;;;;8.70;3.90;;;;;;;;;;6214971;28;20064;-55
2022/08/31 17:47:16;;;;;;;9.07;4.07;;;;;;;;;;6214369;28;20684;-55
2022/08/31 17:50:19;;;;;;;;;;;;;;;;;;6212359;28;20077;-52
2022/08/31 17:53:20;;;;;;;10.65;4.90;;;;;;;;;;6213473;28;19921;-52
2022/08/31 17:56:22;;;;;;;11.97;4.60;;;;;;;;;;6213042;28;20196;-54
2022/08/31 17:59:28;;;;;;;11.48;4.90;;;;;;;;;;6213962;28;20049;-54
2022/08/31 18:02:33;;;;;;;13.43;5.10;;;;;;;;;;6213083;28;20136;-52
2022/08/31 18:05:33;;;;;;;15.23;5.03;;;;;;;;;;6214454;28;20058;-54
2022/08/31 18:08:36;;;;;;;15.85;5.05;;;;;;;;;;6215256;28;20408;-55
2022/08/31 18:11:42;;;;;;;16.15;5.30;;;;;;;;;;6211149;28;20100;-53
2022/08/31 18:14:43;;;;;;;21.50;5.35;;;;;;;;;;6214698;28;20045;-56
2022/08/31 18:17:46;;;;;;;14.07;5.75;;;;;;;;;;6213832;28;20176;-53
2022/08/31 18:20:47;;;;;;;18.77;5.95;;;;;;;;;;6211778;28;20052;-56
2022/08/31 18:23:52;;;;;;;20.90;6.30;;;;;;;;;;6215949;28;20404;-56
2022/08/31 18:26:55;;;;;;;13.52;6.13;;;;;;;;;;6213701;28;20148;-53
2022/08/31 18:29:57;;;;;;;16.73;6.05;;;;;;;;;;6210429;28;20057;-53
2022/08/31 18:33:02;;;;;;;16.05;5.85;;;;;;;;;;6216821;28;20164;-52
2022/08/31 18:36:11;;;;;;;17.48;5.53;;;;;;;;;;6218549;28;20077;-55
2022/08/31 18:39:16;;;;;;;11.07;4.28;;;;;;;;;;6216576;28;20029;-55
2022/08/31 18:45:37;;;;;;;12.80;4.93;;;;;;;;;;6216447;28;20725;-56
2022/08/31 18:48:38;;;;;;;14.82;5.63;;;;;;;;;;6218297;28;20067;-52
2022/08/31 18:51:41;;;;;;;18.37;5.57;;;;;;;;;;6217809;28;20066;-55
2022/08/31 18:54:42;;;;;;;11.18;4.65;;;;;;;;;;6212572;28;20300;-54
2022/08/31 18:57:43;;;;;;;17.15;5.43;;;;;;;;;;6218281;28;20527;-58
2022/08/31 19:00:43;;;;;;;21.38;5.70;;;;;;;;;;6213392;28;20420;-57
2022/08/31 19:03:44;;;;;;;14.13;6.40;;;;;;;;;;6214411;28;20042;-58
2022/08/31 19:06:45;;;;;;;18.20;5.90;;;;;;;;;;6214500;28;20050;-59
2022/08/31 19:09:50;;;;;;;18.10;6.13;;;;;;;;;;6211028;28;20168;-57
2022/08/31 19:12:54;;;;;;;21.08;7.13;;;;;;;;;;6214405;28;20053;-56
2022/08/31 19:15:55;;;;;;;19.90;6.63;;;;;;;;;;6214010;28;20196;-56
2022/08/31 19:18:57;;;;;;;24.65;7.40;;;;;;;;;;6213865;28;20041;-57
2022/08/31 19:21:58;;;;;;;19.52;7.72;;;;;;;;;;6218486;28;20069;-51
2022/08/31 19:24:58;;;;;;;22.00;7.22;;;;;;;;;;6214276;28;20095;-55
2022/08/31 19:28:06;;;;;;;21.07;7.60;;;;;;;;;;6214251;28;20059;-58
2022/08/31 19:31:08;;;;;;;18.42;7.45;;;;;;;;;;6210596;28;20509;-56
2022/08/31 19:34:12;;;;;;;22.95;7.72;;;;;;;;;;6217892;28;20136;-57
2022/08/31 19:37:14;;;;;;;20.63;7.80;;;;;;;;;;6216016;28;20066;-56
2022/08/31 19:40:16;;;;;;;19.40;7.00;;;;;;;;;;6208712;28;20492;-56
2022/08/31 19:43:16;;;;;;;20.67;7.18;;;;;;;;;;6214511;28;20145;-57
2022/08/31 19:46:20;;;;;;;23.45;7.72;;;;;;;;;;6214182;28;20053;-55
2022/08/31 19:49:22;;;;;;;25.38;7.43;;;;;;;;;;6211334;28;20080;-56
2022/08/31 19:52:23;;;;;;;21.48;7.95;;;;;;;;;;6207970;28;20056;-54
2022/08/31 19:55:24;;;;;;;;;;;;;;;;;;6207382;28;20060;-56
2022/08/31 19:58:25;;;;;;;18.92;7.40;;;;;;;;;;6206077;28;19925;-55
2022/08/31 20:01:32;;;;;;;27.00;8.27;;;;;;;;;;6204090;28;20053;-57
2022/08/31 20:04:34;;;;;;;21.67;7.47;;;;;;;;;;6204732;28;20054;-58
2022/08/31 20:07:35;;;;;;;26.90;7.82;;;;;;;;;;6203787;28;20576;-57
2022/08/31 20:10:40;;;;;;;25.05;8.13;;;;;;;;;;6204778;28;20081;-56
2022/08/31 20:13:41;;;;;;;29.33;8.38;;;;;;;;;;6206440;28;20057;-56
2022/08/31 20:16:42;;;;;;;28.37;8.23;;;;;;;;;;6189424;28;20045;-56
2022/08/31 20:19:44;;;;;;;24.27;7.90;;;;;;;;;;6204165;28;20049;-55
2022/08/31 20:22:45;;;;;;;24.50;7.47;;;;;;;;;;6205480;28;20786;-55
2022/08/31 20:25:48;;;;;;;21.23;7.25;;;;;;;;;;6204759;28;20045;-59
2022/08/31 20:28:51;;;;;;;24.05;7.35;;;;;;;;;;6207941;28;20058;-54
2022/08/31 20:31:53;;;;;;;20.25;7.60;;;;;;;;;;6203976;28;20049;-55
2022/08/31 20:34:55;;;;;;;25.80;8.23;;;;;;;;;;6208353;28;20575;-56
2022/08/31 20:37:55;;;;;;;23.92;8.18;;;;;;;;;;6205486;28;20052;-53
2022/08/31 20:40:56;;;;;;;23.60;8.43;;;;;;;;;;6208871;28;20050;-54
2022/08/31 20:44:08;;;;;;;21.57;8.57;;;;;;;;;;6209737;28;20084;-55
2022/08/31 20:50:29;;;;;;;21.13;9.68;;;;;;;;;;6206686;28;20042;-56
2022/08/31 20:53:30;;;;;;;23.17;9.57;;;;;;;;;;6206222;28;20073;-55
2022/08/31 20:56:30;;;;;;;21.00;9.80;;;;;;;;;;6208023;28;20300;-57
2022/08/31 20:59:33;;;;;;;23.30;9.50;;;;;;;;;;6199180;28;20045;-54
2022/08/31 21:02:34;;;;;;;21.10;10.20;;;;;;;;;;6207495;28;20045;-56
2022/08/31 21:05:34;;;;;;;23.85;9.80;;;;;;;;;;6208263;28;20137;-56
2022/08/31 21:08:37;;;;;;;18.50;8.55;;;;;;;;;;6207157;28;20046;-55
2022/08/31 21:11:39;;;;;;;21.17;8.55;;;;;;;;;;6212121;28;20084;-55
2022/08/31 21:14:42;;;;;;;17.92;7.97;;;;;;;;;;6212909;28;20061;-55
2022/08/31 21:17:44;;;;;;;19.17;8.40;;;;;;;;;;6214627;28;20052;-52
2022/08/31 21:20:45;;;;;;;17.17;7.93;;;;;;;;;;6214261;28;20570;-55
2022/08/31 21:23:47;;;;;;;15.15;8.30;;;;;;;;;;6209181;28;20855;-53
2022/08/31 21:26:58;;;;;;;19.25;7.85;;;;;;;;;;6211047;28;20916;-56
2022/08/31 21:30:02;;;;;;;21.40;8.95;;;;;;;;;;6213777;28;20519;-54
2022/08/31 21:33:02;;;;;;;19.75;8.18;;;;;;;;;;6214476;28;20057;-57
2022/08/31 21:36:09;;;;;;;18.60;8.38;;;;;;;;;;6212166;28;20484;-53
2022/08/31 21:39:12;;;;;;;19.48;8.90;;;;;;;;;;6216091;28;20049;-53
2022/08/31 21:42:13;;;;;;;20.75;8.88;;;;;;;;;;6211632;28;20185;-56
2022/08/31 21:45:14;;;;;;;17.98;9.20;;;;;;;;;;6210302;28;20054;-57
2022/08/31 21:48:14;;;;;;;19.70;9.32;;;;;;;;;;6211038;28;20074;-52
2022/08/31 21:51:23;;;;;;;20.75;9.60;;;;;;;;;;6217321;28;20115;-55
2022/08/31 21:54:27;;;;;;;21.48;10.27;;;;;;;;;;6210296;28;20140;-57
2022/08/31 21:57:27;;;;;;;20.77;9.48;;;;;;;;;;6216502;28;20045;-56
2022/08/31 22:00:30;;;;;;;20.73;10.07;;;;;;;;;;6215271;28;20409;-55
2022/08/31 22:03:34;;;;;;;19.90;9.95;;;;;;;;;;6218403;28;20046;-56
2022/08/31 22:06:36;;;;;;;21.60;10.10;;;;;;;;;;6217910;28;20394;-53
2022/08/31 22:09:37;;;;;;;23.83;10.25;;;;;;;;;;6217891;28;20042;-54
2022/08/31 22:12:38;;;;;;;18.30;9.63;;;;;;;;;;6218216;28;20054;-55
2022/08/31 22:15:39;;;;;;;19.98;9.50;;;;;;;;;;6212149;28;20399;-56
2022/08/31 22:18:46;;;;;;;26.00;10.40;;;;;;;;;;6217114;28;20046;-56
2022/08/31 22:21:49;;;;;;;19.08;8.88;;;;;;;;;;6215984;28;20046;-55
2022/08/31 22:24:50;;;;;;;16.38;8.70;;;;;;;;;;6215878;28;20127;-56
2022/08/31 22:27:51;;;;;;;14.30;8.77;;;;;;;;;;6217140;28;20046;-55
2022/08/31 22:30:53;;;;;;;16.52;8.55;;;;;;;;;;6210541;28;20046;-56
2022/08/31 22:33:53;;;;;;;20.13;9.18;;;;;;;;;;6213285;28;20042;-55
2022/08/31 22:36:55;;;;;;;19.42;9.15;;;;;;;;;;6213924;28;20042;-56
2022/08/31 22:39:55;;;;;;;21.98;9.52;;;;;;;;;;6212298;28;20046;-55
2022/08/31 22:42:57;;;;;;;24.50;9.18;;;;;;;;;;6213510;28;20073;-55
2022/08/31 22:45:58;;;;;;;14.85;7.75;;;;;;;;;;6209435;28;20050;-57
2022/08/31 22:48:59;;;;;;;20.55;8.70;;;;;;;;;;6209921;28;20069;-55
2022/08/31 22:52:00;;;;;;;17.27;8.02;;;;;;;;;;6209737;28;20495;-56
2022/08/31 22:55:01;;;;;;;20.15;8.60;;;;;;;;;;6210333;28;20125;-56
2022/08/31 22:58:03;;;;;;;18.38;8.85;;;;;;;;;;6210472;28;20436;-55
2022/08/31 23:01:14;;;;;;;25.30;8.90;;;;;;;;;;6209366;28;20552;-56
2022/08/31 23:04:18;;;;;;;22.40;8.77;;;;;;;;;;6207336;28;20081;-55
2022/08/31 23:07:21;;;;;;;20.42;8.50;;;;;;;;;;6207736;28;20720;-56
2022/08/31 23:10:22;;;;;;;20.38;8.68;;;;;;;;;;6208460;28;20052;-57
2022/08/31 23:13:50;;;;;;;;;;;;;;;;;;6210485;28;20523;-57
2022/08/31 23:16:52;;;;;;;17.45;8.75;;;;;;;;;;6208022;28;19922;-56
2022/08/31 23:19:53;;;;;;;18.95;8.52;;;;;;;;;;6208198;28;20054;-55
2022/08/31 23:22:54;;;;;;;16.45;9.25;;;;;;;;;;6208229;28;20550;-56
2022/08/31 23:25:55;;;;;;;16.17;8.27;;;;;;;;;;6210588;28;20065;-56
2022/08/31 23:28:58;;;;;;;17.20;8.25;;;;;;;;;;6207637;28;20046;-56
2022/08/31 23:31:59;;;;;;;23.17;9.73;;;;;;;;;;6207586;28;20488;-56
2022/08/31 23:35:01;;;;;;;22.85;9.60;;;;;;;;;;6210205;28;20056;-56
2022/08/31 23:38:02;;;;;;;19.15;8.48;;;;;;;;;;6207830;28;20242;-56
2022/08/31 23:41:03;;;;;;;19.05;8.60;;;;;;;;;;6207454;28;20132;-55
2022/08/31 23:44:07;;;;;;;21.60;10.20;;;;;;;;;;6209651;28;20042;-56
2022/08/31 23:47:10;;;;;;;19.88;9.55;;;;;;;;;;6209708;28;20497;-54
2022/08/31 23:50:12;;;;;;;21.00;9.63;;;;;;;;;;6208323;28;20088;-56
2022/08/31 23:53:13;;;;;;;19.60;8.65;;;;;;;;;;6208010;28;20070;-57
2022/08/31 23:56:14;;;;;;;21.43;9.57;;;;;;;;;;6210929;28;20069;-56
2022/08/31 23:59:17;;;;;;;20.08;9.50;;;;;;;;;;6208731;28;20054;-57
